Logo AVAMET
Benvolgut visitant, si us plau, ingressa Recuperar contrasenya

Xàbia Tossals/Carrasquetes

Dades diàries. Acumulats / Últims 30 dies disponibles

Data Temperatura (°C) Humitat rel. (%) Pressió rel. (hPa) Vent (km/h) Precipitació
Mínima Mitjana Màxima Amplitud
tèrmica
Mínima Mitjana Màxima Mínima Mitjana Màxima Predom. Mitjana Ràfega
màxima
Total
(mm)
Índex-n
Mínima Mitjana Màxima Mínima Mitjana Màxima n
0 a 1
P0 max
mm 5'
Dades mensuals acumulades fins l'últim dia disponible
05/2019 9,8 14,1 19,7 18,6 19,8 23,7 30,1 20,3 26 72 96 1.001 1.014 1.024   2,3 41,8 2,2
Dades anuals acumulades fins l'últim dia disponible
2019 2,3 9,6 19,7 14,1 11,3 19,2 30,1 27,8 22 69 99 993 1.018 1.035   2,5 53,1 412,2
Últims 30 dies disponibles
23-05-2019 15,9     21,9     27,8 11,9 26 54 85 1.013 1.016 1.018 WSW 2,3 25,7 0,0
22-05-2019 13,1     18,9     24,9 11,8 46 79 95 1.016 1.017 1.018 WSW 1,9 22,5 0,0
21-05-2019 15,2     18,2     23,8 8,6 63 84 94 1.013 1.015 1.017 W 1,1 17,7 0,2
20-05-2019 12,2     17,7     23,3 11,1 46 70 84 1.011 1.012 1.013 ESE 1,6 19,3 0,0
19-05-2019 12,5     17,5     22,6 10,1 52 73 92 1.009 1.010 1.012 WSW 1,8 24,1 0,0
18-05-2019 13,2     16,8     20,5 7,3 45 68 85 1.007 1.008 1.010 ESE 1,3 20,9 1,2
17-05-2019 15,2     19,4     24,7 9,5 32 59 87 1.001 1.004 1.009 OSO 5,6 41,8 0,0
16-05-2019 15,8     18,8     22,9 7,1 59 75 85 1.005 1.010 1.014 WSW 2,7 22,5 0,0
15-05-2019 13,3     18,9     24,4 11,1 57 73 84 1.010 1.011 1.014 NNW 2,6 29,0 0,0
14-05-2019 11,8     18,2     24,4 12,6 32 65 89 1.014 1.018 1.021 WSW 3,1 29,0 0,0
13-05-2019 15,3     18,9     23,7 8,4 53 73 91 1.018 1.019 1.021 WSW 2,4 24,1 0,0
12-05-2019 14,5     19,1     23,9 9,4 53 76 94 1.019 1.022 1.024 WSW 1,4 20,9 0,0
11-05-2019 17,7     21,3     24,7 7,0 54 65 79 1.017 1.019 1.022 NE 3,1 27,4 0,0
10-05-2019 17,3     22,9     30,1 12,8 43 64 83 1.011 1.012 1.013 SO 1,4 19,3 0,0
09-05-2019 19,7     23,2     27,4 7,7 44 57 74 1.011 1.012 1.013 WNW 2,7 27,4 0,0
08-05-2019 13,5     21,4     28,2 14,7 48 72 96 1.009 1.011 1.014 SSE 1,0 16,1 0,0
07-05-2019 15,3     18,7     23,1 7,8 66 82 93 1.013 1.016 1.019 WSW 1,8 19,3 0,0
06-05-2019 10,7     15,9     21,7 11,0 65 81 94 1.016 1.018 1.019 WSW 2,1 22,5 0,0
05-05-2019 13,3     16,4     20,7 7,4 49 68 87 1.011 1.014 1.017 NNW 3,9 30,6 0,0
04-05-2019 9,8     15,1     20,8 11,0 47 74 96 1.011 1.012 1.013 W 2,4 29,0 0,2
03-05-2019 11,2     15,0     19,8 8,6 66 81 93 1.010 1.012 1.014 ENE 2,4 27,4 0,6
02-05-2019 13,3     16,3     20,2 6,9 66 81 94 1.013 1.014 1.016 NNW 2,3 25,7 0,0
01-05-2019 13,6     17,4     22,4 8,8 40 75 92 1.013 1.015 1.016 SSE 1,3 16,1 0,0
30-04-2019 12,2     17,2     21,7 9,5 57 78 95 1.015 1.017 1.018 SW 1,9 22,5 0,0
29-04-2019 11,3     15,9     22,4 11,1 59 79 93 1.017 1.019 1.020 SSE 1,3 19,3 0,0
28-04-2019 11,1     17,2     23,7 12,6 36 67 90 1.019 1.022 1.024 WSW 1,3 17,7 0,0
27-04-2019 10,9     16,4     22,4 11,5 41 67 84 1.023 1.025 1.026 WSW 1,9 19,3 0,0
26-04-2019 11,1     17,1     22,4 11,3 37 54 80 1.017 1.021 1.024 W 3,1 24,1 0,0
25-04-2019 14,3     17,1     20,6 6,3 51 73 91 1.009 1.012 1.017 E 2,1 20,9 0,0
24-04-2019 7,8     14,6     18,9 11,1 49 68 87 1.004 1.009 1.011 WSW 4,3 35,4 0,0
Últims 13 mesos disponibles
04/2019 7,8 11,2 14,3 15,3 14,3 20,0 28,6 20,8 47 73 95 999 1.012 1.025 W 3,3 43,5 363,0
03/2019 6,4 9,3 13,2 14,2 13,9 19,3 28,1 21,7 45 67 91 1.010 1.022 1.029 NW 2,4 38,6 39,2
02/2019 4,3 7,3 11,5 12,0 13,0 17,4 22,8 18,5 38 70 86 995 1.024 1.033 NW 2,2 53,1 1,0
01/2019 2,3 7,0 11,9 11,3 11,3 16,4 21,5 19,2 40 65 87 1.003 1.018 1.030 NW 2,2 46,7 6,8
12/2018 5,6 8,5 10,9 12,8 13,1 18,5 22,3 16,7 57 77 88 1.008 1.024 1.030 NW 0,8 45,1 4,6
11/2018 7,2 11,3 17,3 14,9 15,1 19,2 23,8 16,6 57 76 94 999 1.015 1.022 NW 1,8 48,3 115,4
10/2018 8,7 15,0 18,4 18,8 14,8 23,2 28,5 19,8 45 76 89 999 1.014 1.024 1,8 37,0 127,2
09/2018 15,0 20,6 23,2 24,2 22,9 28,5 31,5 16,5 73 82 92 1.011 1.018 1.026 1,8 32,2 140,4
08/2018 19,1 22,6 25,8 26,9 25,3 32,0 37,5 18,4 53 75 86 1.011 1.015 1.020 1,7 35,4 131,6
07/2018 19,9 21,9 24,8 26,6 28,4 31,8 35,1 15,2 2,6 32,2 0,0
06/2018 14,0 18,4 21,9 23,4 23,6 28,6 32,8 18,8 2,4 29,0 27,2
05/2018 8,3 14,2 18,4 18,9 17,0 23,9 28,9 20,6 2,5 40,2 7,0
04/2018 7,7 12,0 16,7 16,1 14,7 20,6 26,1 18,4 3,8 51,5 23,8
Tots els anys disponibles
2018 2,1 14,2 25,8 18,4 8,1 23,2 37,5 35,4 37 76 94 999 1.017 1.030 NW 2,2 62,8 778,8
2017 0,4 14,1 26,9 18,7 8,9 23,3 35,9 35,5 38 71 96 999 1.018 1.036 0,0 68,0 720,4
2016 1,9 14,4 24,3 18,7 12,2 23,1 38,2 36,3 35 70 94 995 1.017 1.036 56,0 475,4
2015 3,8 12,1 21,1 16,4 13,1 20,7 30,4 26,6 44 78 91 1.008 1.023 1.036 48,0 232,2
2014
Temperatura (°C)
Humitat relativa (%)
Velocitat del vent i ràfega màxima (km/h)
Direcció del vent (°)
Pressió (hPa)
Precipitació (mm)
Nota sobre les dades: s'avisa a l'usuari de la provisionalitat i no oficialitat d'aquestes dades
Logo AVAMET blanc
Web allotjada a Sollutia
Llicència de Creative CommonsLa web d'AVAMET i els seus continguts estan subjectes a una llicència de
Reconeixement - No Comercial - Compartir igual
Properes estacions: Altea - Club Nàutic d'Altea (Soci), Ontinyent - El Pilar (Soci), Ares del Maestrat (Ajuntament Soci), Catadau - L'Altet (Inforatge)     - - - - -      Últimes estacions: Asp - Poliesportiu (Soci), Jacarilla - centro (MeteOrihuela), Elx - Maitino/Vallverda/Velarde/Matola/Ferriol (Soci TiempoElche.com), Orihuela - Playa Flamenca (MeteOrihuela), - - -